Vronskiy — C4AY2 — position and weather

sailwx.info

Track history (hours):
 
Tides and Currents Weather Stations Pressure Air Temp Water Temp Dewpoint Dewpoint Depression Visibility Wind Speed Wind Dir Waves Ship Positions

Vronskiy

Last reported at 2014-Oct-31 18:12 UTC. Time now 2014-Oct-31 18:46 UTC.
Position N 35°57' W 005°30'.

Length 131 m; draft 5.2 m.

Type: Passenger vessel. MMSI: 210030000.

Date/timePositionNaut miles runAvg speedWind from/ knotsBaromVisibWave heightAir tempDewpointWater temp
2014-Oct-31 18:12N 35°57' W 005°30'1015.9
2014-Oct-31 17:33N 36°05' W 005°24'3 1.5
2014-Oct-31 15:22N 36°08' W 005°26'910.1
2014-Oct-31 14:29N 35°59' W 005°26'3 1.0
2014-Oct-31 11:34N 35°58' W 005°29'8 2.5
2014-Oct-31 08:26N 36°04' W 005°24'7 0.6
2014-Oct-30 21:33N 35°59' W 005°28'3 0.4
2014-Oct-30 14:33N 36°01' W 005°25'8 3.6
2014-Oct-30 12:14N 36°09' W 005°26'1014.6
2014-Oct-30 11:32N 35°59' W 005°25'2 0.7
2014-Oct-30 08:32N 35°59' W 005°28'6 0.6
2014-Oct-29 23:13N 36°04' W 005°23'9 1.8
2014-Oct-29 18:03N 35°56' W 005°30'1016.7
2014-Oct-29 17:26N 36°05' W 005°24'9 3.1
2014-Oct-29 14:33N 35°57' W 005°28'4 1.2
2014-Oct-29 11:33N 36°00' W 005°26'10 3.2
2014-Oct-29 08:32N 36°10' W 005°25'2 0.2
2014-Oct-28 20:26N 36°08' W 005°26'910.0
2014-Oct-28 19:33N 35°59' W 005°25'5 1.5
2014-Oct-28 16:33N 35°58' W 005°30'12 4.0
2014-Oct-28 13:33N 36°09' W 005°26'12 2.4
2014-Oct-28 08:33N 35°57' W 005°29'11 1.3
2014-Oct-27 23:34N 36°08' W 005°26'12 2.3
2014-Oct-27 18:34N 35°57' W 005°29'11 3.6
2014-Oct-27 15:28N 36°08' W 005°26'9 8.9
2014-Oct-27 14:28N 35°59' W 005°26'4 1.3
2014-Oct-27 11:33N 35°57' W 005°29'1110.9
2014-Oct-27 10:30N 36°08' W 005°26'1 0.5
2014-Oct-27 08:31N 36°09' W 005°26'11 1.0
2014-Oct-26 21:34N 35°58' W 005°29'10 4.0
2014-Oct-26 19:07N 36°08' W 005°26'7 8.8
2014-Oct-26 18:22N 36°02' W 005°24'7 3.3
2014-Oct-26 16:08N 35°56' W 005°30'1015.8
2014-Oct-26 15:29N 36°05' W 005°24'3 1.5
2014-Oct-26 13:07N 36°08' W 005°26'9 8.9
2014-Oct-26 12:04N 35°59' W 005°26'2 0.5
2014-Oct-26 08:33N 35°59' W 005°28'9 1.3
2014-Oct-26 01:32N 36°08' W 005°26'1211.8
2014-Oct-26 00:31N 35°57' W 005°29'1 0.3
2014-Oct-25 20:33N 35°58' W 005°29'11 4.6
2014-Oct-25 18:16N 36°08' W 005°26'7 8.7
2014-Oct-25 17:24N 36°01' W 005°25'6 2.1
2014-Oct-25 14:28N 35°56' W 005°30'1312.1
2014-Oct-25 13:26N 36°08' W 005°26'13 2.1
2014-Oct-25 07:24N 35°56' W 005°30'1314.8
2014-Oct-25 06:33N 36°08' W 005°24'6 0.8
2014-Oct-24 22:05N 36°02' W 005°23'2 0.3
2014-Oct-24 16:33N 36°01' W 005°25'6 3.2
2014-Oct-24 14:33N 36°08' W 005°26'9 9.0
2014-Oct-24 13:31N 35°59' W 005°26'2 0.6
2014-Oct-24 10:33N 35°60' W 005°27'8 3.4
2014-Oct-24 08:08N 36°08' W 005°26'5 8.4
2014-Oct-24 07:33N 36°03' W 005°24'5 0.4
2014-Oct-23 20:33N 35°59' W 005°28'9 7.6
2014-Oct-23 19:25N 36°08' W 005°26'0 0.1
2014-Oct-23 18:08N 36°08' W 005°26'8 9.8
2014-Oct-23 17:17N 35°60' W 005°25'6 1.9
2014-Oct-23 14:25N 35°56' W 005°30'1314.6
2014-Oct-23 13:34N 36°08' W 005°24'2 0.8
2014-Oct-23 11:31N 36°08' W 005°26'9 9.2
2014-Oct-23 10:33N 35°59' W 005°25'4 1.4
2014-Oct-23 07:34N 35°57' W 005°30'12 1.4
2014-Oct-22 22:33N 36°09' W 005°26'13 2.5
2014-Oct-22 17:21N 35°56' W 005°30'1114.0
2014-Oct-22 16:33N 36°06' W 005°24'3 1.2
2014-Oct-22 14:16N 36°08' W 005°26'6 8.9
2014-Oct-22 13:32N 36°02' W 005°24'5 1.5
2014-Oct-22 10:33N 35°58' W 005°28'10 9.6
2014-Oct-22 09:33N 36°08' W 005°26'0 0.0
2014-Oct-22 08:33N 36°08' W 005°26'0 0.3
2014-Oct-22 07:33N 36°08' W 005°26'1212.1
2014-Oct-22 06:34N 35°56' W 005°28'3 0.3
2014-Oct-21 20:32N 35°59' W 005°28'  
Track history (hours):
 
Tides and Currents Weather Stations Pressure Air Temp Water Temp Dewpoint Dewpoint Depression Visibility Wind Speed Wind Dir Waves Ship Positions

Vronskiy

Last reported at 2014-Oct-31 18:12 UTC. Time now 2014-Oct-31 18:46 UTC.
Position N 35°57' W 005°30'.

Length 131 m; draft 5.2 m.

Type: Passenger vessel. MMSI: 210030000.

Date/timePositionNaut miles runAvg speedWind from/ knotsBaromVisibWave heightAir tempDewpointWater temp
2014-Oct-31 18:12N 35°57' W 005°30'1015.9
2014-Oct-31 17:33N 36°05' W 005°24'3 1.5
2014-Oct-31 15:22N 36°08' W 005°26'910.1
2014-Oct-31 14:29N 35°59' W 005°26'3 1.0
2014-Oct-31 11:34N 35°58' W 005°29'8 2.5
2014-Oct-31 08:26N 36°04' W 005°24'7 0.6
2014-Oct-30 21:33N 35°59' W 005°28'3 0.4
2014-Oct-30 14:33N 36°01' W 005°25'8 3.6
2014-Oct-30 12:14N 36°09' W 005°26'1014.6
2014-Oct-30 11:32N 35°59' W 005°25'2 0.7
2014-Oct-30 08:32N 35°59' W 005°28'6 0.6
2014-Oct-29 23:13N 36°04' W 005°23'9 1.8
2014-Oct-29 18:03N 35°56' W 005°30'1016.7
2014-Oct-29 17:26N 36°05' W 005°24'9 3.1
2014-Oct-29 14:33N 35°57' W 005°28'4 1.2
2014-Oct-29 11:33N 36°00' W 005°26'10 3.2
2014-Oct-29 08:32N 36°10' W 005°25'2 0.2
2014-Oct-28 20:26N 36°08' W 005°26'910.0
2014-Oct-28 19:33N 35°59' W 005°25'5 1.5
2014-Oct-28 16:33N 35°58' W 005°30'12 4.0
2014-Oct-28 13:33N 36°09' W 005°26'12 2.4
2014-Oct-28 08:33N 35°57' W 005°29'11 1.3
2014-Oct-27 23:34N 36°08' W 005°26'12 2.3
2014-Oct-27 18:34N 35°57' W 005°29'11 3.6
2014-Oct-27 15:28N 36°08' W 005°26'9 8.9
2014-Oct-27 14:28N 35°59' W 005°26'4 1.3
2014-Oct-27 11:33N 35°57' W 005°29'1110.9
2014-Oct-27 10:30N 36°08' W 005°26'1 0.5
2014-Oct-27 08:31N 36°09' W 005°26'11 1.0
2014-Oct-26 21:34N 35°58' W 005°29'10 4.0
2014-Oct-26 19:07N 36°08' W 005°26'7 8.8
2014-Oct-26 18:22N 36°02' W 005°24'7 3.3
2014-Oct-26 16:08N 35°56' W 005°30'1015.8
2014-Oct-26 15:29N 36°05' W 005°24'3 1.5
2014-Oct-26 13:07N 36°08' W 005°26'9 8.9
2014-Oct-26 12:04N 35°59' W 005°26'2 0.5
2014-Oct-26 08:33N 35°59' W 005°28'9 1.3
2014-Oct-26 01:32N 36°08' W 005°26'1211.8
2014-Oct-26 00:31N 35°57' W 005°29'1 0.3
2014-Oct-25 20:33N 35°58' W 005°29'11 4.6
2014-Oct-25 18:16N 36°08' W 005°26'7 8.7
2014-Oct-25 17:24N 36°01' W 005°25'6 2.1
2014-Oct-25 14:28N 35°56' W 005°30'1312.1
2014-Oct-25 13:26N 36°08' W 005°26'13 2.1
2014-Oct-25 07:24N 35°56' W 005°30'1314.8
2014-Oct-25 06:33N 36°08' W 005°24'6 0.8
2014-Oct-24 22:05N 36°02' W 005°23'2 0.3
2014-Oct-24 16:33N 36°01' W 005°25'6 3.2
2014-Oct-24 14:33N 36°08' W 005°26'9 9.0
2014-Oct-24 13:31N 35°59' W 005°26'2 0.6
2014-Oct-24 10:33N 35°60' W 005°27'8 3.4
2014-Oct-24 08:08N 36°08' W 005°26'5 8.4
2014-Oct-24 07:33N 36°03' W 005°24'5 0.4
2014-Oct-23 20:33N 35°59' W 005°28'9 7.6
2014-Oct-23 19:25N 36°08' W 005°26'0 0.1
2014-Oct-23 18:08N 36°08' W 005°26'8 9.8
2014-Oct-23 17:17N 35°60' W 005°25'6 1.9
2014-Oct-23 14:25N 35°56' W 005°30'1314.6
2014-Oct-23 13:34N 36°08' W 005°24'2 0.8
2014-Oct-23 11:31N 36°08' W 005°26'9 9.2
2014-Oct-23 10:33N 35°59' W 005°25'4 1.4
2014-Oct-23 07:34N 35°57' W 005°30'12 1.4
2014-Oct-22 22:33N 36°09' W 005°26'13 2.5
2014-Oct-22 17:21N 35°56' W 005°30'1114.0
2014-Oct-22 16:33N 36°06' W 005°24'3 1.2
2014-Oct-22 14:16N 36°08' W 005°26'6 8.9
2014-Oct-22 13:32N 36°02' W 005°24'5 1.5
2014-Oct-22 10:33N 35°58' W 005°28'10 9.6
2014-Oct-22 09:33N 36°08' W 005°26'0 0.0
2014-Oct-22 08:33N 36°08' W 005°26'0 0.3
2014-Oct-22 07:33N 36°08' W 005°26'1212.1
2014-Oct-22 06:34N 35°56' W 005°28'3 0.3
2014-Oct-21 20:32N 35°59' W 005°28'  

Dump ship's entire track history